createdAt,value
2018-04-01T00:00:16.120Z,9.00
2018-04-01T00:02:45.538Z,9.00
2018-04-01T00:05:14.874Z,9.00
2018-04-01T00:07:44.286Z,9.00
2018-04-01T00:10:13.728Z,9.00
2018-04-01T00:12:43.052Z,9.00
2018-04-01T00:15:11.765Z,9.10
2018-04-01T00:17:40.982Z,9.10
2018-04-01T00:20:10.194Z,9.10
2018-04-01T00:22:39.211Z,9.00
2018-04-01T00:25:09.695Z,9.00
2018-04-01T00:27:39.199Z,9.00
2018-04-01T00:30:08.443Z,9.00
2018-04-01T00:32:37.773Z,8.90
2018-04-01T00:35:07.041Z,8.90
2018-04-01T00:37:36.440Z,8.80
2018-04-01T00:40:05.767Z,8.80
2018-04-01T00:42:34.697Z,8.70
2018-04-01T00:45:04.102Z,8.60
2018-04-01T00:47:33.537Z,8.50
2018-04-01T00:50:03.007Z,8.40
2018-04-01T00:52:32.303Z,8.40
2018-04-01T00:55:01.731Z,8.40
2018-04-01T00:57:30.935Z,8.40
2018-04-01T01:00:00.138Z,8.40
2018-04-01T01:02:29.494Z,8.40
2018-04-01T01:04:58.526Z,8.30
2018-04-01T01:07:28.082Z,8.20
2018-04-01T01:09:57.592Z,8.10
2018-04-01T01:12:27.110Z,8.20
2018-04-01T01:14:56.088Z,8.20
2018-04-01T01:17:25.373Z,8.30
2018-04-01T01:19:54.874Z,8.40
2018-04-01T01:22:24.633Z,8.50
2018-04-01T01:24:54.123Z,8.60
2018-04-01T01:27:23.564Z,8.70
2018-04-01T01:29:53.340Z,8.80
2018-04-01T01:32:22.639Z,8.70
2018-04-01T01:34:52.401Z,8.70
2018-04-01T01:37:21.997Z,8.70
2018-04-01T01:39:51.145Z,8.60
2018-04-01T01:42:20.722Z,8.50
2018-04-01T01:44:50.611Z,8.40
2018-04-01T01:47:20.552Z,8.30
2018-04-01T01:49:50.293Z,8.20
2018-04-01T01:52:20.015Z,8.10
2018-04-01T01:54:49.670Z,8.10
2018-04-01T01:57:19.584Z,8.10
2018-04-01T01:59:49.175Z,8.10
2018-04-01T02:02:18.794Z,8.00
2018-04-01T02:04:48.356Z,8.00
2018-04-01T02:07:18.114Z,8.00
2018-04-01T02:09:47.905Z,7.90
2018-04-01T02:12:17.447Z,7.80
2018-04-01T02:14:47.014Z,7.80
2018-04-01T02:17:16.574Z,7.70
2018-04-01T02:19:46.287Z,7.60
2018-04-01T02:22:17.357Z,7.60
2018-04-01T02:24:46.944Z,7.50
2018-04-01T02:27:16.565Z,7.40
2018-04-01T02:29:46.432Z,7.40
2018-04-01T02:32:16.629Z,7.30
2018-04-01T02:34:46.324Z,7.20
2018-04-01T02:37:16.310Z,7.10
2018-04-01T02:39:46.280Z,7.00
2018-04-01T02:42:18.017Z,7.00
2018-04-01T02:44:47.591Z,6.90
2018-04-01T02:47:17.273Z,6.80
2018-04-01T02:49:46.892Z,6.70
2018-04-01T02:52:16.368Z,6.60
2018-04-01T02:54:46.120Z,6.40
2018-04-01T02:57:15.719Z,6.40
2018-04-01T02:59:45.986Z,6.30
2018-04-01T03:02:15.289Z,6.30
2018-04-01T03:04:46.006Z,6.30
2018-04-01T03:07:15.757Z,6.20
2018-04-01T03:09:45.450Z,6.20
2018-04-01T03:12:15.374Z,6.20
2018-04-01T03:14:44.701Z,6.20
2018-04-01T03:17:14.226Z,6.20
2018-04-01T03:19:44.778Z,6.10
2018-04-01T03:22:15.428Z,6.10
2018-04-01T03:24:47.091Z,5.90
2018-04-01T03:27:17.957Z,5.90
2018-04-01T03:29:47.325Z,5.70
2018-04-01T03:32:17.793Z,5.80
2018-04-01T03:34:47.939Z,5.70
2018-04-01T03:37:19.525Z,5.80
2018-04-01T03:39:50.412Z,5.80
2018-04-01T03:42:19.783Z,5.80
2018-04-01T03:44:49.348Z,5.80
2018-04-01T03:47:18.449Z,5.80
2018-04-01T03:49:48.200Z,5.80
2018-04-01T03:52:20.021Z,5.70
2018-04-01T03:54:49.395Z,5.70
2018-04-01T03:57:19.311Z,5.70
2018-04-01T03:59:50.750Z,5.80
2018-04-01T04:02:20.427Z,5.70
2018-04-01T04:04:50.372Z,5.70
2018-04-01T04:07:20.083Z,5.70
2018-04-01T04:09:50.551Z,5.70
2018-04-01T04:12:20.002Z,5.70
2018-04-01T04:14:49.933Z,5.70
2018-04-01T04:17:19.667Z,5.60
2018-04-01T04:19:49.293Z,5.60
2018-04-01T04:22:18.568Z,5.40
2018-04-01T04:24:47.983Z,5.30
2018-04-01T04:27:17.840Z,5.20
2018-04-01T04:29:46.944Z,5.00
2018-04-01T04:32:16.484Z,4.90
2018-04-01T04:34:46.140Z,4.90
2018-04-01T04:37:15.323Z,4.80
2018-04-01T04:39:44.641Z,4.70
2018-04-01T04:42:15.118Z,4.60
2018-04-01T04:44:44.630Z,4.60
2018-04-01T04:47:14.188Z,4.60
2018-04-01T04:49:43.837Z,4.60
2018-04-01T04:52:13.198Z,4.50
2018-04-01T04:54:42.709Z,4.50
2018-04-01T04:57:12.130Z,4.50
2018-04-01T04:59:41.181Z,4.40
2018-04-01T05:02:10.700Z,4.40
2018-04-01T05:04:40.072Z,4.40
2018-04-01T05:07:09.522Z,4.40
2018-04-01T05:09:38.738Z,4.20
2018-04-01T05:12:08.015Z,4.40
2018-04-01T05:14:37.477Z,4.40
2018-04-01T05:17:06.615Z,4.60
2018-04-01T05:19:36.046Z,4.70
2018-04-01T05:22:05.848Z,4.80
2018-04-01T05:24:35.213Z,5.00
2018-04-01T05:27:04.950Z,5.10
2018-04-01T05:29:34.385Z,5.20
2018-04-01T05:32:03.603Z,5.30
2018-04-01T05:34:33.115Z,5.40
2018-04-01T05:37:02.355Z,5.40
2018-04-01T05:39:32.650Z,5.40
2018-04-01T05:42:01.954Z,5.50
2018-04-01T05:44:31.812Z,5.50
2018-04-01T05:47:01.457Z,5.60
2018-04-01T05:49:31.037Z,5.80
2018-04-01T05:52:00.660Z,5.80
2018-04-01T05:54:30.412Z,5.80
2018-04-01T05:57:00.917Z,5.90
2018-04-01T05:59:30.545Z,6.00
2018-04-01T06:02:00.191Z,6.10
2018-04-01T06:04:29.942Z,6.20
2018-04-01T06:07:00.024Z,6.20
2018-04-01T06:09:29.606Z,6.20
2018-04-01T06:11:59.212Z,6.40
2018-04-01T06:14:28.714Z,6.40
2018-04-01T06:16:57.662Z,6.70
2018-04-01T06:19:27.212Z,6.80
2018-04-01T06:21:56.663Z,7.00
2018-04-01T06:24:26.185Z,7.10
2018-04-01T06:26:55.803Z,7.40
2018-04-01T06:29:25.535Z,7.60
2018-04-01T06:31:54.984Z,7.80
2018-04-01T06:34:24.169Z,7.80
2018-04-01T06:36:53.287Z,7.90
2018-04-01T06:39:22.768Z,7.90
2018-04-01T06:41:51.995Z,7.80
2018-04-01T06:44:22.056Z,7.90
2018-04-01T06:46:51.524Z,7.90
2018-04-01T06:49:22.048Z,7.90
2018-04-01T06:51:52.497Z,7.90
2018-04-01T06:54:21.822Z,7.90
2018-04-01T06:56:50.716Z,7.80
2018-04-01T06:59:20.079Z,7.80
2018-04-01T07:01:49.495Z,7.80
2018-04-01T07:04:18.894Z,7.80
2018-04-01T07:06:48.263Z,7.80
2018-04-01T07:09:17.869Z,7.80
2018-04-01T07:11:47.509Z,7.70
2018-04-01T07:14:17.060Z,7.60
2018-04-01T07:16:46.428Z,7.60
2018-04-01T07:19:15.907Z,7.60
2018-04-01T07:21:45.275Z,7.70
2018-04-01T07:24:14.726Z,7.70
2018-04-01T07:26:44.085Z,7.70
2018-04-01T07:29:13.385Z,7.80
2018-04-01T07:31:44.413Z,7.80
2018-04-01T07:34:13.805Z,7.80
2018-04-01T07:36:43.620Z,7.80
2018-04-01T07:39:13.000Z,8.00
2018-04-01T07:41:41.908Z,8.00
2018-04-01T07:44:10.764Z,8.00
2018-04-01T07:46:40.013Z,8.10
2018-04-01T07:49:09.628Z,8.20
2018-04-01T07:51:38.972Z,8.30
2018-04-01T07:54:08.234Z,8.50
2018-04-01T07:56:37.457Z,7.40
2018-04-01T07:59:06.694Z,8.90
2018-04-01T08:01:35.883Z,9.00
2018-04-01T08:04:05.136Z,9.00
2018-04-01T08:06:34.250Z,8.80
2018-04-01T08:09:03.699Z,8.80
2018-04-01T08:11:33.046Z,8.90
2018-04-01T08:14:05.341Z,9.00
2018-04-01T08:16:34.654Z,9.10
2018-04-01T08:19:03.848Z,9.10
2018-04-01T08:21:33.013Z,9.10
2018-04-01T08:24:02.214Z,9.30
2018-04-01T08:26:31.421Z,9.50
2018-04-01T08:29:00.743Z,11.30
2018-04-01T08:31:30.058Z,10.40
2018-04-01T08:33:59.318Z,10.40
2018-04-01T08:36:28.443Z,10.50
2018-04-01T08:38:57.513Z,10.40
2018-04-01T08:41:27.571Z,10.30
2018-04-01T08:43:57.057Z,10.40
2018-04-01T08:46:27.818Z,10.50
2018-04-01T08:48:56.893Z,10.50
2018-04-01T08:51:26.044Z,10.40
2018-04-01T08:53:55.308Z,10.10
2018-04-01T08:56:24.740Z,10.10
2018-04-01T08:58:54.189Z,10.10
2018-04-01T09:01:23.393Z,10.20
2018-04-01T09:03:52.499Z,10.30
2018-04-01T09:06:21.602Z,10.30
2018-04-01T09:08:50.779Z,10.30
2018-04-01T09:11:19.986Z,10.30
2018-04-01T09:13:49.205Z,10.20
2018-04-01T09:16:18.399Z,10.10
2018-04-01T09:18:47.502Z,10.00
2018-04-01T09:21:17.157Z,10.00
2018-04-01T09:23:46.339Z,10.20
2018-04-01T09:26:15.442Z,10.60
2018-04-01T09:28:44.587Z,11.40
2018-04-01T09:31:13.703Z,12.40
2018-04-01T09:33:42.849Z,12.50
2018-04-01T09:36:11.527Z,12.50
2018-04-01T09:38:40.971Z,12.60
2018-04-01T09:41:10.579Z,12.60
2018-04-01T09:43:39.546Z,12.40
2018-04-01T09:46:08.664Z,12.20
2018-04-01T09:48:37.748Z,11.70
2018-04-01T09:51:06.848Z,11.20
2018-04-01T09:53:35.863Z,10.50
2018-04-01T09:56:04.949Z,10.10
2018-04-01T09:58:34.003Z,9.90
2018-04-01T10:01:04.757Z,10.00
2018-04-01T10:03:35.162Z,10.20
2018-04-01T10:06:05.032Z,10.40
2018-04-01T10:08:35.942Z,10.70
2018-04-01T10:11:06.538Z,11.10
2018-04-01T10:13:37.978Z,11.90
2018-04-01T10:16:08.362Z,11.30
2018-04-01T10:18:38.908Z,11.20
2018-04-01T10:21:09.683Z,11.10
2018-04-01T10:23:40.163Z,11.30
2018-04-01T10:26:10.741Z,9.10
2018-04-01T10:28:41.159Z,11.70
2018-04-01T10:31:11.888Z,11.90
2018-04-01T10:33:42.337Z,12.00
2018-04-01T10:36:12.871Z,11.90
2018-04-01T10:38:43.230Z,11.90
2018-04-01T10:41:20.729Z,12.10
2018-04-01T10:43:51.882Z,12.50
2018-04-01T10:46:22.500Z,13.20
2018-04-01T10:48:54.736Z,13.90
2018-04-01T10:51:25.358Z,14.50
2018-04-01T10:53:59.479Z,14.70
2018-04-01T10:56:28.854Z,15.30
2018-04-01T10:58:57.996Z,15.90
2018-04-01T11:01:29.126Z,16.20
2018-04-01T11:03:58.138Z,16.10
2018-04-01T11:06:27.259Z,16.00
2018-04-01T11:08:59.271Z,16.90
2018-04-01T11:11:30.743Z,17.20
2018-04-01T11:13:59.857Z,16.50
2018-04-01T11:16:29.535Z,15.60
2018-04-01T11:19:00.244Z,14.70
2018-04-01T11:21:29.247Z,14.40
2018-04-01T11:23:58.232Z,14.20
2018-04-01T11:26:27.387Z,14.70
2018-04-01T11:31:40.867Z,14.40
2018-04-01T11:34:09.986Z,14.10
2018-04-01T11:36:39.085Z,13.60
2018-04-01T11:39:07.799Z,13.30
2018-04-01T11:41:36.954Z,13.30
2018-04-01T11:44:05.996Z,13.80
2018-04-01T11:46:35.163Z,15.10
2018-04-01T11:49:04.226Z,15.30
2018-04-01T11:51:41.287Z,14.40
2018-04-01T11:54:10.683Z,14.30
2018-04-01T11:56:39.841Z,13.90
2018-04-01T11:59:08.941Z,13.60
2018-04-01T12:01:37.982Z,13.10
2018-04-01T12:04:07.078Z,13.50
2018-04-01T12:06:35.730Z,14.30
2018-04-01T12:09:04.540Z,14.50
2018-04-01T12:11:33.642Z,14.30
2018-04-01T12:14:03.726Z,14.20
2018-04-01T12:16:32.779Z,14.00
2018-04-01T12:19:04.942Z,14.20
2018-04-01T12:21:34.196Z,14.00
2018-04-01T12:24:03.891Z,13.80
2018-04-01T12:26:33.039Z,13.60
2018-04-01T12:29:03.092Z,13.40
2018-04-01T12:31:32.246Z,13.20
2018-04-01T12:34:01.283Z,15.20
2018-04-01T12:36:30.823Z,12.30
2018-04-01T12:38:59.594Z,12.20
2018-04-01T12:41:29.529Z,15.00
2018-04-01T12:44:00.076Z,11.90
2018-04-01T12:46:29.133Z,12.10
2018-04-01T12:48:57.443Z,12.40
2018-04-01T12:51:26.502Z,12.80
2018-04-01T12:53:55.958Z,12.90
2018-04-01T12:56:25.135Z,12.90
2018-04-01T12:58:55.130Z,12.80
2018-04-01T13:01:35.128Z,12.50
2018-04-01T13:04:04.594Z,12.00
2018-04-01T13:06:33.796Z,12.20
2018-04-01T13:09:02.809Z,12.70
2018-04-01T13:11:31.993Z,13.30
2018-04-01T13:14:01.009Z,13.50
2018-04-01T13:16:30.133Z,14.20
2018-04-01T13:18:59.200Z,15.30
2018-04-01T13:21:28.277Z,15.90
2018-04-01T13:23:57.576Z,16.50
2018-04-01T13:26:27.253Z,17.60
2018-04-01T13:28:56.874Z,18.50
2018-04-01T13:31:26.639Z,19.00
2018-04-01T13:33:55.952Z,19.50
2018-04-01T13:36:28.946Z,19.30
2018-04-01T13:38:58.211Z,18.80
2018-04-01T13:41:27.308Z,17.80
2018-04-01T13:46:51.454Z,17.60
2018-04-01T13:49:20.453Z,17.70
2018-04-01T13:51:49.570Z,17.00
2018-04-01T13:54:18.773Z,15.70
2018-04-01T13:56:47.814Z,14.50
2018-04-01T13:59:16.894Z,13.80
2018-04-01T14:01:49.551Z,13.30
2018-04-01T14:04:19.039Z,13.10
2018-04-01T14:06:48.113Z,14.00
2018-04-01T14:09:17.339Z,13.00
2018-04-01T14:11:46.077Z,12.90
2018-04-01T14:14:15.766Z,15.60
2018-04-01T14:16:44.851Z,13.00
2018-04-01T14:19:13.968Z,13.00
2018-04-01T14:21:43.197Z,13.10
2018-04-01T14:24:12.324Z,13.00
2018-04-01T14:26:41.523Z,12.80
2018-04-01T14:29:10.656Z,13.70
2018-04-01T14:31:39.937Z,12.70
2018-04-01T14:34:09.465Z,12.80
2018-04-01T14:36:38.568Z,12.70
2018-04-01T14:39:07.728Z,12.80
2018-04-01T14:41:36.947Z,12.80
2018-04-01T14:44:06.172Z,12.80
2018-04-01T14:46:35.539Z,12.80
2018-04-01T14:49:04.610Z,12.80
2018-04-01T14:51:33.671Z,12.70
2018-04-01T14:54:04.417Z,12.80
2018-04-01T14:59:07.114Z,12.20
2018-04-01T15:01:36.346Z,12.30
2018-04-01T15:04:05.466Z,12.30
2018-04-01T15:06:35.597Z,12.30
2018-04-01T15:09:04.378Z,12.20
2018-04-01T15:11:33.423Z,12.20
2018-04-01T15:14:02.453Z,12.10
2018-04-01T15:16:31.563Z,11.90
2018-04-01T15:19:02.794Z,11.80
2018-04-01T15:21:32.493Z,11.70
2018-04-01T15:24:01.733Z,11.70
2018-04-01T15:26:32.533Z,11.60
2018-04-01T15:29:02.608Z,11.70
2018-04-01T15:31:31.726Z,11.70
2018-04-01T15:34:00.848Z,11.80
2018-04-01T15:36:29.852Z,12.00
2018-04-01T15:39:06.578Z,12.20
2018-04-01T15:41:35.853Z,12.40
2018-04-01T15:44:04.965Z,12.50
2018-04-01T15:46:35.060Z,12.50
2018-04-01T15:49:04.080Z,12.40
2018-04-01T15:51:33.305Z,12.40
2018-04-01T15:54:02.385Z,12.30
2018-04-01T15:56:31.445Z,12.20
2018-04-01T15:59:00.126Z,12.20
2018-04-01T16:01:29.305Z,12.20
2018-04-01T16:03:58.426Z,12.30
2018-04-01T16:06:27.515Z,12.30
2018-04-01T16:08:56.570Z,12.30
2018-04-01T16:11:25.679Z,12.20
2018-04-01T16:13:54.464Z,12.20
2018-04-01T16:16:30.240Z,12.00
2018-04-01T16:18:59.340Z,11.90
2018-04-01T16:21:28.403Z,11.80
2018-04-01T16:23:57.465Z,11.70
2018-04-01T16:26:26.485Z,11.60
2018-04-01T16:28:55.663Z,11.40
2018-04-01T16:31:24.724Z,11.50
2018-04-01T16:33:53.832Z,11.50
2018-04-01T16:36:22.595Z,10.80
2018-04-01T16:38:51.744Z,11.20
2018-04-01T16:41:20.837Z,11.20
2018-04-01T16:43:49.972Z,12.20
2018-04-01T16:46:19.132Z,11.20
2018-04-01T16:48:48.193Z,11.10
2018-04-01T16:51:17.600Z,11.10
2018-04-01T16:53:46.714Z,10.90
2018-04-01T16:56:15.897Z,10.90
2018-04-01T16:58:44.956Z,10.70
2018-04-01T17:01:14.143Z,10.60
2018-04-01T17:03:43.201Z,10.50
2018-04-01T17:06:12.340Z,10.50
2018-04-01T17:08:41.363Z,10.40
2018-04-01T17:11:10.376Z,12.20
2018-04-01T17:13:39.062Z,10.30
2018-04-01T17:16:08.143Z,10.30
2018-04-01T17:18:37.304Z,10.20
2018-04-01T17:21:06.345Z,10.20
2018-04-01T17:23:35.653Z,10.20
2018-04-01T17:26:04.651Z,10.20
2018-04-01T17:28:33.727Z,10.10
2018-04-01T17:31:02.924Z,10.10
2018-04-01T17:33:32.000Z,10.10
2018-04-01T17:36:01.100Z,10.00
2018-04-01T17:38:30.157Z,9.90
2018-04-01T17:40:59.226Z,10.00
2018-04-01T17:43:31.867Z,9.90
2018-04-01T17:46:01.080Z,9.90
2018-04-01T17:48:30.202Z,9.90
2018-04-01T17:50:59.297Z,9.80
2018-04-01T17:53:35.446Z,9.80
2018-04-01T17:56:07.794Z,9.70
2018-04-01T17:58:36.519Z,9.60
2018-04-01T18:01:05.784Z,9.60
2018-04-01T18:03:35.130Z,9.60
2018-04-01T18:06:04.260Z,9.50
2018-04-01T18:08:34.009Z,9.60
2018-04-01T18:11:03.068Z,9.50
2018-04-01T18:13:32.148Z,9.50
2018-04-01T18:16:01.333Z,9.50
2018-04-01T18:18:30.393Z,9.30
2018-04-01T18:20:59.517Z,9.40
2018-04-01T18:23:39.537Z,10.40
2018-04-01T18:26:24.210Z,9.30
2018-04-01T18:28:53.615Z,9.30
2018-04-01T18:31:22.670Z,9.20
2018-04-01T18:33:51.714Z,9.10
2018-04-01T18:36:20.790Z,9.20
2018-04-01T18:38:49.849Z,9.20
2018-04-01T18:41:18.895Z,9.20
2018-04-01T18:43:48.066Z,9.10
2018-04-01T18:46:17.205Z,9.10
2018-04-01T18:48:46.518Z,9.10
2018-04-01T18:51:15.675Z,9.10
2018-04-01T18:53:44.907Z,9.10
2018-04-01T18:56:13.955Z,9.10
2018-04-01T18:58:43.145Z,9.00
2018-04-01T19:01:12.268Z,9.00
2018-04-01T19:03:41.432Z,8.90
2018-04-01T19:06:10.560Z,9.00
2018-04-01T19:08:39.724Z,8.90
2018-04-01T19:11:08.927Z,8.80
2018-04-01T19:13:38.018Z,8.90
2018-04-01T19:16:08.193Z,8.90
2018-04-01T19:18:39.414Z,8.80
2018-04-01T19:21:09.923Z,8.90
2018-04-01T19:23:40.436Z,8.80
2018-04-01T19:26:11.029Z,8.80
2018-04-01T19:28:41.590Z,8.80
2018-04-01T19:31:12.121Z,7.50
2018-04-01T19:33:42.487Z,8.50
2018-04-01T19:36:13.334Z,8.70
2018-04-01T19:38:43.831Z,8.70
2018-04-01T19:41:14.394Z,8.70
2018-04-01T19:43:44.820Z,8.70
2018-04-01T19:46:15.440Z,8.60
2018-04-01T19:48:45.830Z,8.60
2018-04-01T19:51:16.365Z,8.60
2018-04-01T19:53:46.961Z,8.60
2018-04-01T19:56:17.461Z,8.50
2018-04-01T19:58:47.923Z,8.60
2018-04-01T20:01:18.408Z,8.60
2018-04-01T20:03:48.854Z,8.60
2018-04-01T20:06:19.294Z,8.60
2018-04-01T20:08:49.801Z,7.60
2018-04-01T20:11:20.628Z,8.60
2018-04-01T20:13:51.093Z,8.60
2018-04-01T20:16:23.611Z,8.40
2018-04-01T20:18:54.083Z,8.50
2018-04-01T20:21:24.617Z,8.40
2018-04-01T20:23:55.038Z,8.40
2018-04-01T20:26:25.482Z,8.40
2018-04-01T20:28:56.069Z,8.40
2018-04-01T20:31:26.412Z,8.40
2018-04-01T20:33:57.148Z,8.30
2018-04-01T20:36:28.068Z,8.40
2018-04-01T20:38:58.117Z,8.20
2018-04-01T20:41:28.185Z,8.30
2018-04-01T20:43:58.573Z,8.30
2018-04-01T20:46:29.067Z,8.20
2018-04-01T20:48:59.487Z,5.50
2018-04-01T20:51:29.521Z,8.30
2018-04-01T20:53:59.915Z,8.30
2018-04-01T20:56:35.466Z,8.30
2018-04-01T20:59:05.903Z,8.30
2018-04-01T21:01:36.453Z,8.20
2018-04-01T21:04:06.615Z,8.20
2018-04-01T21:06:37.321Z,8.20
2018-04-01T21:09:07.730Z,8.20
2018-04-01T21:11:38.139Z,8.20
2018-04-01T21:14:08.581Z,8.20
2018-04-01T21:16:39.132Z,8.10
2018-04-01T21:19:09.651Z,8.10
2018-04-01T21:21:40.258Z,8.10
2018-04-01T21:24:10.827Z,8.10
2018-04-01T21:26:40.893Z,8.00
2018-04-01T21:29:11.002Z,8.00
2018-04-01T21:31:41.134Z,8.00
2018-04-01T21:34:11.207Z,7.90
2018-04-01T21:36:41.634Z,8.00
2018-04-01T21:39:12.103Z,8.00
2018-04-01T21:41:42.877Z,8.00
2018-04-01T21:44:13.388Z,7.80
2018-04-01T21:46:44.167Z,8.00
2018-04-01T21:49:14.667Z,7.90
2018-04-01T21:51:45.139Z,7.90
2018-04-01T21:54:15.543Z,7.90
2018-04-01T21:56:45.876Z,7.90
2018-04-01T21:59:17.290Z,7.80
2018-04-01T22:01:48.356Z,7.90
2018-04-01T22:04:18.990Z,7.70
2018-04-01T22:06:50.410Z,7.70
2018-04-01T22:09:23.036Z,7.70
2018-04-01T22:11:53.586Z,7.70
2018-04-01T22:14:23.978Z,7.60
2018-04-01T22:16:55.394Z,7.60
2018-04-01T22:19:27.205Z,7.50
2018-04-01T22:21:57.804Z,7.30
2018-04-01T22:24:27.951Z,7.40
2018-04-01T22:26:58.633Z,7.30
2018-04-01T22:29:29.154Z,7.20
2018-04-01T22:31:59.590Z,7.20
2018-04-01T22:34:30.859Z,7.20
2018-04-01T22:37:01.482Z,7.20
2018-04-01T22:39:31.901Z,7.20
2018-04-01T22:42:02.534Z,7.10
2018-04-01T22:44:33.094Z,7.10
2018-04-01T22:47:04.042Z,7.00
2018-04-01T22:49:34.727Z,7.00
2018-04-01T22:52:05.693Z,6.90
2018-04-01T22:54:37.113Z,6.90
2018-04-01T22:57:07.794Z,6.90
2018-04-01T22:59:37.930Z,6.80
2018-04-01T23:02:09.264Z,6.80
2018-04-01T23:04:39.773Z,6.80
2018-04-01T23:07:10.753Z,6.70
2018-04-01T23:09:41.446Z,6.70
2018-04-01T23:12:12.183Z,6.60
2018-04-01T23:14:42.480Z,6.60
2018-04-01T23:17:13.430Z,6.40
2018-04-01T23:19:44.569Z,6.40
2018-04-01T23:22:15.731Z,6.40
2018-04-01T23:24:46.907Z,6.40
2018-04-01T23:27:17.725Z,6.30
2018-04-01T23:29:48.329Z,6.60
2018-04-01T23:32:19.093Z,6.50
2018-04-01T23:34:49.275Z,6.50
2018-04-01T23:37:19.877Z,6.50
2018-04-01T23:39:50.427Z,6.50
2018-04-01T23:42:21.084Z,6.50
2018-04-01T23:44:51.771Z,6.50
2018-04-01T23:47:22.739Z,6.50
2018-04-01T23:49:54.337Z,6.50
2018-04-01T23:52:24.898Z,6.40
2018-04-01T23:54:55.652Z,6.50
2018-04-01T23:57:26.353Z,6.50
2018-04-01T23:59:57.250Z,6.50
